Time;durP1;ratioP1;P1;durP2;ratioP2;P2;SDS_P1;SDS_P2;PMS_P1;PMS_P2;Temp;Humidity;BMP_temperature;BMP_pressure;BME280_temperature;BME280_humidity;BME280_pressure;Samples;Min_cycle;Max_cycle;Signal;HPM_P1;HPM_P2
2022/10/24 00:00:45;;;;;;;9.25;1.95;;;14.70;99.90;;;;;;5064875;28;20033;-71
2022/10/24 00:03:13;;;;;;;6.30;2.08;;;14.70;99.90;;;;;;5062486;28;20047;-71
2022/10/24 00:05:44;;;;;;;7.75;2.10;;;14.70;99.90;;;;;;5062786;28;20049;-70
2022/10/24 00:08:10;;;;;;;12.18;2.50;;;14.70;99.90;;;;;;5045001;28;20064;-71
2022/10/24 00:10:36;;;;;;;9.52;2.00;;;14.70;99.90;;;;;;5056107;28;20061;-71
2022/10/24 00:13:02;;;;;;;6.93;2.05;;;14.70;99.90;;;;;;5062507;28;20080;-71
2022/10/24 00:15:30;;;;;;;7.65;2.10;;;14.70;99.90;;;;;;5065675;28;20040;-71
2022/10/24 00:17:55;;;;;;;8.20;2.20;;;14.70;99.90;;;;;;5058154;28;20123;-71
2022/10/24 00:20:21;;;;;;;9.88;1.90;;;14.70;99.90;;;;;;5058712;28;20136;-71
2022/10/24 00:22:47;;;;;;;7.55;2.00;;;14.70;99.90;;;;;;5061346;28;20084;-70
2022/10/24 00:25:13;;;;;;;6.78;2.00;;;14.70;99.90;;;;;;5062506;28;20123;-71
2022/10/24 00:27:38;;;;;;;8.48;1.92;;;14.70;99.90;;;;;;5068724;28;20077;-71
2022/10/24 00:30:05;;;;;;;12.00;2.13;;;14.70;99.90;;;;;;5070123;28;20448;-71
2022/10/24 00:32:31;;;;;;;6.40;2.03;;;14.70;99.90;;;;;;5048774;28;20076;-70
2022/10/24 00:34:56;;;;;;;7.05;2.13;;;14.70;99.90;;;;;;5068903;28;20079;-71
2022/10/24 00:37:22;;;;;;;6.93;1.70;;;14.70;99.90;;;;;;5068462;28;20048;-71
2022/10/24 00:39:47;;;;;;;7.03;1.67;;;14.70;99.90;;;;;;5066770;28;20037;-71
2022/10/24 00:42:13;;;;;;;10.35;1.98;;;14.70;99.90;;;;;;5067688;28;20048;-71
2022/10/24 00:44:40;;;;;;;5.93;1.70;;;14.70;99.90;;;;;;5068734;28;20050;-71
2022/10/24 00:47:09;;;;;;;10.50;1.98;;;14.70;99.90;;;;;;5068808;28;20060;-71
2022/10/24 00:50:00;;;;;;;8.73;1.90;;;14.70;99.90;;;;;;5067674;28;20600;-71
2022/10/24 00:52:33;;;;;;;4.85;1.70;;;14.70;99.90;;;;;;5050803;28;20127;-71
2022/10/24 00:55:01;;;;;;;5.25;1.40;;;14.80;99.90;;;;;;5070474;28;20523;-71
2022/10/24 00:57:38;;;;;;;10.65;2.60;;;14.80;99.90;;;;;;5068403;28;20161;-71
2022/10/24 01:00:12;;;;;;;8.20;1.73;;;14.70;99.90;;;;;;5064462;28;20044;-71
2022/10/24 01:02:38;;;;;;;9.15;1.60;;;14.80;99.90;;;;;;5083342;28;20412;-71
2022/10/24 01:05:07;;;;;;;8.50;1.60;;;14.80;99.90;;;;;;5063749;28;20447;-71
2022/10/24 01:07:55;;;;;;;8.50;1.80;;;14.70;99.90;;;;;;5064825;28;20079;-71
2022/10/24 01:10:39;;;;;;;6.25;1.52;;;14.70;99.90;;;;;;5058393;28;20079;-71
2022/10/24 01:13:33;;;;;;;7.63;1.83;;;14.70;99.90;;;;;;5096277;28;20040;-71
2022/10/24 01:16:16;;;;;;;6.00;1.60;;;14.70;99.90;;;;;;5067999;28;20064;-71
2022/10/24 01:18:54;;;;;;;9.00;1.80;;;14.70;99.90;;;;;;5050665;28;20055;-71
2022/10/24 01:21:33;;;;;;;9.15;1.85;;;14.70;99.90;;;;;;5065846;28;20048;-71
2022/10/24 01:24:31;;;;;;;9.80;1.58;;;14.70;99.90;;;;;;5069598;28;20610;-71
2022/10/24 01:27:27;;;;;;;5.25;1.13;;;14.70;99.90;;;;;;5066341;28;20564;-70
2022/10/24 01:30:12;;;;;;;5.18;1.42;;;14.70;99.90;;;;;;5065047;28;20049;-71
2022/10/24 01:32:47;;;;;;;8.18;1.83;;;14.80;99.90;;;;;;5066971;28;20039;-71
2022/10/24 01:35:40;;;;;;;6.63;1.20;;;14.70;99.90;;;;;;5067809;28;20179;-71
2022/10/24 01:38:16;;;;;;;5.65;1.58;;;14.70;99.90;;;;;;5096183;28;20064;-71
2022/10/24 01:40:51;;;;;;;7.80;1.60;;;14.70;99.90;;;;;;5070225;28;20456;-71
2022/10/24 01:43:40;;;;;;;7.57;1.85;;;14.70;99.90;;;;;;5068929;28;20032;-71
2022/10/24 01:46:11;;;;;;;7.22;1.90;;;14.70;99.90;;;;;;5063602;28;20048;-70
2022/10/24 01:48:51;;;;;;;5.63;1.85;;;14.70;99.90;;;;;;5065558;28;20052;-71
2022/10/24 01:51:20;;;;;;;7.80;1.88;;;14.80;99.90;;;;;;5066638;28;20056;-70
2022/10/24 01:53:46;;;;;;;6.78;2.00;;;14.80;99.90;;;;;;5050309;28;20072;-71
2022/10/24 01:56:12;;;;;;;7.35;1.63;;;14.80;99.90;;;;;;5066027;28;20044;-71
2022/10/24 01:58:38;;;;;;;6.97;1.80;;;14.80;99.90;;;;;;5066662;28;20533;-71
2022/10/24 02:01:10;;;;;;;8.60;1.77;;;14.90;99.90;;;;;;5050337;28;20039;-71
2022/10/24 02:03:46;;;;;;;7.95;2.08;;;14.90;99.90;;;;;;5067935;28;20564;-71
2022/10/24 02:06:20;;;;;;;5.00;2.00;;;14.90;99.90;;;;;;5065191;28;20545;-70
2022/10/24 02:08:51;;;;;;;8.65;1.90;;;14.90;99.90;;;;;;5049258;28;20036;-71
2022/10/24 02:11:16;;;;;;;;;;;14.90;99.90;;;;;;5067720;28;20059;-71
2022/10/24 02:14:06;;;;;;;6.13;1.90;;;14.90;99.90;;;;;;5068807;28;19920;-71
2022/10/24 02:16:33;;;;;;;9.50;2.10;;;14.90;99.90;;;;;;5065789;28;20186;-71
2022/10/24 02:18:59;;;;;;;10.10;2.10;;;14.90;99.90;;;;;;5066663;28;20043;-71
2022/10/24 02:21:43;;;;;;;10.07;2.28;;;14.90;99.90;;;;;;5067018;28;20460;-71
2022/10/24 02:24:18;;;;;;;6.55;1.85;;;14.90;99.90;;;;;;5066045;28;20044;-71
2022/10/24 02:27:00;;;;;;;12.27;2.33;;;14.90;99.90;;;;;;5067890;28;20400;-71
2022/10/24 02:29:46;;;;;;;9.90;2.13;;;14.90;99.90;;;;;;5050146;28;20456;-71
2022/10/24 02:32:17;;;;;;;9.05;2.53;;;15.00;99.90;;;;;;5066151;28;20075;-70
2022/10/24 02:34:43;;;;;;;8.52;2.55;;;15.00;99.90;;;;;;5067694;28;20051;-70
2022/10/24 02:37:11;;;;;;;10.27;2.95;;;15.00;99.90;;;;;;5064755;28;20558;-71
2022/10/24 02:39:39;;;;;;;11.38;2.67;;;15.00;99.90;;;;;;5067771;28;21671;-70
2022/10/24 02:42:07;;;;;;;10.52;2.65;;;15.00;99.90;;;;;;5067731;28;20082;-71
2022/10/24 02:44:34;;;;;;;9.45;2.30;;;15.00;99.90;;;;;;5068788;28;20052;-71
2022/10/24 02:47:02;;;;;;;10.20;2.20;;;15.00;99.90;;;;;;5066336;28;20036;-70
2022/10/24 02:49:29;;;;;;;8.85;1.92;;;15.00;99.90;;;;;;5067483;28;20395;-71
2022/10/24 02:51:55;;;;;;;9.30;2.28;;;14.90;99.90;;;;;;5065681;28;20044;-70
2022/10/24 02:54:21;;;;;;;10.05;2.47;;;15.00;99.90;;;;;;5066215;28;20040;-70
2022/10/24 02:56:50;;;;;;;6.45;2.38;;;15.00;99.90;;;;;;5068228;28;20040;-71
2022/10/24 02:59:16;;;;;;;8.52;2.28;;;15.00;99.90;;;;;;5064944;28;20043;-70
2022/10/24 03:01:42;;;;;;;11.07;2.60;;;15.00;99.90;;;;;;5049888;28;20135;-71
2022/10/24 03:04:08;;;;;;;9.02;2.38;;;15.10;99.90;;;;;;5066608;28;20609;-71
2022/10/24 03:06:33;;;;;;;9.95;2.42;;;15.10;99.90;;;;;;5064072;28;20044;-71
2022/10/24 03:08:59;;;;;;;12.05;2.55;;;15.10;99.90;;;;;;5047262;28;20098;-71
2022/10/24 03:11:25;;;;;;;13.77;2.35;;;15.10;99.90;;;;;;5065239;28;20071;-71
2022/10/24 03:13:50;;;;;;;9.63;2.10;;;15.10;99.90;;;;;;5065021;28;20498;-71
2022/10/24 03:16:16;;;;;;;11.85;2.10;;;15.10;99.90;;;;;;5068399;28;20063;-71
2022/10/24 03:18:42;;;;;;;11.15;2.38;;;15.10;99.90;;;;;;5069182;28;20040;-70
2022/10/24 03:21:07;;;;;;;10.27;2.60;;;15.10;99.90;;;;;;5065493;28;20066;-70
2022/10/24 03:23:33;;;;;;;7.47;2.08;;;15.20;99.90;;;;;;5067570;28;20036;-71
2022/10/24 03:25:59;;;;;;;8.30;1.92;;;15.20;99.90;;;;;;5066323;28;20068;-71
2022/10/24 03:28:25;;;;;;;12.50;2.22;;;15.20;99.90;;;;;;5063087;28;20087;-71
2022/10/24 03:30:52;;;;;;;6.00;1.70;;;15.20;99.90;;;;;;5066711;28;20068;-71
2022/10/24 03:33:18;;;;;;;8.00;2.17;;;15.20;99.90;;;;;;5067158;28;20051;-71
2022/10/24 03:35:44;;;;;;;10.07;2.00;;;15.20;99.90;;;;;;5066872;28;20048;-70
2022/10/24 03:38:10;;;;;;;6.97;2.10;;;15.20;99.90;;;;;;5065422;28;20039;-70
2022/10/24 03:40:36;;;;;;;6.75;1.90;;;15.30;99.90;;;;;;5048922;28;20173;-71
2022/10/24 03:43:03;;;;;;;8.20;2.05;;;15.20;99.90;;;;;;5066325;28;20464;-70
2022/10/24 03:45:29;;;;;;;8.90;2.33;;;15.20;99.90;;;;;;5049125;28;20044;-70
2022/10/24 03:47:54;;;;;;;11.07;1.95;;;15.20;99.90;;;;;;5065252;28;20032;-71
2022/10/24 03:50:20;;;;;;;8.93;2.42;;;15.20;99.90;;;;;;5065507;28;20044;-71
2022/10/24 03:52:46;;;;;;;8.65;2.13;;;15.30;99.90;;;;;;5066306;28;20071;-71
2022/10/24 03:55:12;;;;;;;11.05;1.95;;;15.30;99.90;;;;;;5067864;28;20041;-70
2022/10/24 03:57:38;;;;;;;9.48;2.45;;;15.30;99.90;;;;;;5067151;28;20039;-71
2022/10/24 04:00:05;;;;;;;6.85;2.30;;;15.20;99.90;;;;;;5069356;28;20048;-71
2022/10/24 04:02:30;;;;;;;9.32;1.80;;;15.30;99.90;;;;;;5049290;28;20118;-71
2022/10/24 04:04:56;;;;;;;10.43;2.00;;;15.30;99.90;;;;;;5066745;28;20182;-71
2022/10/24 04:07:22;;;;;;;5.88;2.00;;;15.20;99.90;;;;;;5065177;28;20047;-71
2022/10/24 04:09:48;;;;;;;9.15;1.80;;;15.20;99.90;;;;;;5063502;28;20197;-71
2022/10/24 04:12:14;;;;;;;6.78;2.13;;;15.20;99.90;;;;;;5065568;28;20050;-72
2022/10/24 04:14:40;;;;;;;7.47;2.08;;;15.20;99.90;;;;;;5066372;28;20072;-72
2022/10/24 04:17:06;;;;;;;6.75;2.15;;;15.20;99.90;;;;;;5066015;28;20596;-71
2022/10/24 04:19:32;;;;;;;9.07;1.98;;;15.20;99.90;;;;;;5048683;28;20118;-71
2022/10/24 04:21:58;;;;;;;11.15;2.63;;;15.20;99.90;;;;;;5067346;28;20037;-72
2022/10/24 04:24:24;;;;;;;9.10;1.92;;;15.20;99.90;;;;;;5065207;28;20051;-72
2022/10/24 04:26:50;;;;;;;9.50;2.00;;;15.20;99.90;;;;;;5067319;28;20044;-71
2022/10/24 04:29:16;;;;;;;6.65;1.95;;;15.10;99.90;;;;;;5065177;28;20079;-71
2022/10/24 04:31:41;;;;;;;9.13;2.00;;;15.20;99.90;;;;;;5065571;28;20052;-72
2022/10/24 04:34:07;;;;;;;8.98;2.08;;;15.10;99.90;;;;;;5067612;28;20033;-71
2022/10/24 04:36:33;;;;;;;9.80;1.95;;;15.20;99.90;;;;;;5061969;28;20055;-71
2022/10/24 04:38:59;;;;;;;8.23;2.05;;;15.10;99.90;;;;;;5062349;28;20036;-72
2022/10/24 04:41:25;;;;;;;12.57;2.13;;;15.10;99.90;;;;;;5066779;28;20047;-71
2022/10/24 04:43:52;;;;;;;10.07;2.30;;;15.00;99.90;;;;;;5065484;28;20128;-70
2022/10/24 04:46:17;;;;;;;7.85;2.10;;;15.00;99.90;;;;;;5063017;28;20032;-71
2022/10/24 04:48:43;;;;;;;7.97;1.70;;;15.00;99.90;;;;;;5066119;28;20102;-71
2022/10/24 04:51:09;;;;;;;14.07;2.13;;;15.00;99.90;;;;;;5066682;28;20163;-71
2022/10/24 04:53:35;;;;;;;8.60;1.90;;;15.00;99.90;;;;;;5066341;28;20044;-71
2022/10/24 04:56:01;;;;;;;12.73;1.98;;;14.90;99.90;;;;;;5065409;28;20071;-71
2022/10/24 04:58:27;;;;;;;10.77;2.22;;;14.90;99.90;;;;;;5047394;28;20048;-70
2022/10/24 05:00:53;;;;;;;12.18;2.00;;;14.90;99.90;;;;;;5061121;28;20160;-70
2022/10/24 05:03:20;;;;;;;11.68;2.13;;;14.90;99.90;;;;;;5050429;28;20056;-71
2022/10/24 05:05:46;;;;;;;12.13;2.22;;;14.90;99.90;;;;;;5043170;28;20040;-70
2022/10/24 05:08:12;;;;;;;7.72;1.80;;;14.90;99.90;;;;;;5043399;28;20029;-71
2022/10/24 05:10:38;;;;;;;10.10;1.80;;;14.80;99.90;;;;;;5057448;28;20076;-71
2022/10/24 05:13:04;;;;;;;13.60;2.28;;;14.80;99.90;;;;;;5053499;28;20076;-70
2022/10/24 05:15:30;;;;;;;8.75;1.58;;;15.00;99.90;;;;;;5051523;28;20452;-70
2022/10/24 05:17:56;;;;;;;11.48;1.75;;;14.80;99.90;;;;;;5034915;28;20044;-70
2022/10/24 05:20:23;;;;;;;9.55;2.05;;;14.80;99.90;;;;;;5050951;28;20052;-70
2022/10/24 05:22:48;;;;;;;9.75;1.80;;;14.80;99.90;;;;;;5055088;28;20135;-70
2022/10/24 05:25:14;;;;;;;5.60;1.60;;;14.80;99.90;;;;;;5064816;28;20446;-70
2022/10/24 05:27:40;;;;;;;11.55;2.45;;;14.80;99.90;;;;;;5052520;28;20527;-70
2022/10/24 05:30:06;;;;;;;14.48;2.00;;;14.80;99.90;;;;;;5057898;28;20088;-70
2022/10/24 05:32:33;;;;;;;9.65;2.97;;;14.70;99.90;;;;;;5063873;28;20056;-70
2022/10/24 05:35:02;;;;;;;6.45;1.58;;;14.70;99.90;;;;;;5046467;28;20040;-70
2022/10/24 05:37:31;;;;;;;9.65;2.10;;;14.70;99.90;;;;;;5051961;28;20098;-70
2022/10/24 05:39:57;;;;;;;8.15;2.35;;;14.70;99.90;;;;;;5049108;28;20127;-71
2022/10/24 05:42:23;;;;;;;7.70;1.95;;;14.70;99.90;;;;;;5057143;28;20135;-71
2022/10/24 05:44:49;;;;;;;8.23;1.77;;;14.70;99.90;;;;;;5053810;28;20048;-70
2022/10/24 05:47:14;;;;;;;5.93;2.08;;;14.70;99.90;;;;;;5051172;28;20620;-71
2022/10/24 05:49:40;;;;;;;8.75;2.20;;;14.70;99.90;;;;;;5084051;28;20033;-70
2022/10/24 05:52:06;;;;;;;7.68;1.90;;;14.70;99.90;;;;;;5056163;28;20076;-70
2022/10/24 05:54:32;;;;;;;7.53;1.58;;;14.70;99.90;;;;;;5055959;28;20055;-70
2022/10/24 05:56:58;;;;;;;7.18;1.75;;;14.70;99.90;;;;;;5060911;28;20048;-70
2022/10/24 05:59:23;;;;;;;8.00;1.52;;;14.70;99.90;;;;;;5060541;28;20064;-71
2022/10/24 06:01:49;;;;;;;6.95;1.50;;;14.70;99.90;;;;;;5058245;28;20043;-70
2022/10/24 06:04:15;;;;;;;8.80;1.52;;;14.80;99.90;;;;;;5056084;28;20041;-70
2022/10/24 06:06:42;;;;;;;11.18;1.80;;;14.70;99.90;;;;;;5059960;28;20088;-69
2022/10/24 06:09:09;;;;;;;8.98;1.90;;;14.70;99.90;;;;;;5036809;28;20118;-70
2022/10/24 06:11:35;;;;;;;9.40;2.13;;;14.60;99.90;;;;;;5056596;28;20078;-70
2022/10/24 06:14:02;;;;;;;13.32;1.33;;;14.70;99.90;;;;;;5049618;28;20045;-71
2022/10/24 06:16:29;;;;;;;6.97;1.70;;;14.70;99.90;;;;;;5050624;28;20131;-70
2022/10/24 06:18:56;;;;;;;7.53;1.73;;;14.70;99.90;;;;;;5059993;28;20122;-70
2022/10/24 06:21:22;;;;;;;8.48;1.65;;;14.50;99.90;;;;;;5056624;28;20074;-70
2022/10/24 06:23:48;;;;;;;16.30;2.03;;;14.70;99.90;;;;;;5055336;28;20090;-71
2022/10/24 06:26:13;;;;;;;10.43;1.52;;;14.70;99.90;;;;;;5054882;28;20042;-70
2022/10/24 06:28:40;;;;;;;7.45;1.30;;;14.60;99.90;;;;;;5060508;28;20501;-70
2022/10/24 06:31:07;;;;;;;10.23;1.85;;;14.60;99.90;;;;;;5060682;28;20048;-70
2022/10/24 06:33:33;;;;;;;10.20;1.48;;;14.60;99.90;;;;;;5060004;28;20048;-70
2022/10/24 06:36:00;;;;;;;8.32;1.50;;;14.60;99.90;;;;;;5059609;28;20079;-70
2022/10/24 06:38:26;;;;;;;8.23;1.77;;;14.60;99.90;;;;;;5088507;27;20148;-70
2022/10/24 06:40:52;;;;;;;7.40;1.40;;;14.60;99.90;;;;;;5053522;28;20047;-69
2022/10/24 06:43:21;;;;;;;6.40;1.45;;;14.60;99.90;;;;;;5042803;28;20052;-70
2022/10/24 06:45:47;;;;;;;11.77;1.70;;;14.60;99.90;;;;;;5056127;28;20409;-70
2022/10/24 06:48:12;;;;;;;11.57;1.88;;;14.60;99.90;;;;;;5057406;28;20052;-70
2022/10/24 06:50:39;;;;;;;9.23;1.65;;;14.60;99.90;;;;;;5056144;28;20359;-70
2022/10/24 06:53:09;;;;;;;8.05;1.40;;;14.70;99.90;;;;;;5056316;28;20040;-70
2022/10/24 06:55:37;;;;;;;10.95;1.77;;;14.70;99.90;;;;;;5081340;28;20052;-70
2022/10/24 06:58:05;;;;;;;14.02;1.80;;;14.70;99.90;;;;;;5054425;28;20072;-70
2022/10/24 07:00:32;;;;;;;7.32;1.33;;;14.70;99.90;;;;;;5054432;28;20048;-70
2022/10/24 07:02:59;;;;;;;9.93;1.63;;;14.80;99.90;;;;;;5061870;28;20048;-70
2022/10/24 07:05:24;;;;;;;9.93;1.50;;;14.80;99.90;;;;;;5049655;28;20068;-70
2022/10/24 07:07:50;;;;;;;8.02;1.50;;;14.90;99.90;;;;;;5050720;28;20135;-69
2022/10/24 07:10:16;;;;;;;12.27;1.65;;;14.80;99.90;;;;;;5052918;28;20090;-70
2022/10/24 07:12:42;;;;;;;11.88;1.77;;;15.00;99.90;;;;;;4994615;28;20085;-70
2022/10/24 07:15:08;;;;;;;11.80;2.28;;;15.00;99.90;;;;;;5016899;28;20104;-70
2022/10/24 07:17:41;;;;;;;7.38;1.45;;;15.00;99.90;;;;;;5009217;28;20545;-70
2022/10/24 07:20:08;;;;;;;12.32;1.60;;;15.00;99.90;;;;;;5022177;28;20561;-70
2022/10/24 07:22:34;;;;;;;9.43;1.25;;;15.00;99.90;;;;;;5012792;28;20069;-70
2022/10/24 07:25:00;;;;;;;10.45;1.70;;;15.00;99.90;;;;;;4994265;28;20140;-70
2022/10/24 07:27:26;;;;;;;5.13;1.13;;;15.10;99.90;;;;;;5033990;28;20057;-70
2022/10/24 07:29:52;;;;;;;10.10;1.40;;;15.10;99.90;;;;;;5009661;28;20053;-70
2022/10/24 07:32:19;;;;;;;9.65;1.40;;;15.20;99.90;;;;;;4997139;28;20436;-70
2022/10/24 07:34:46;;;;;;;6.90;1.15;;;15.20;99.90;;;;;;5016810;28;20048;-70
2022/10/24 07:37:16;;;;;;;10.80;1.98;;;15.50;99.90;;;;;;5017445;28;20064;-70
2022/10/24 07:39:42;;;;;;;7.40;1.35;;;15.40;99.90;;;;;;5014424;28;20104;-70
2022/10/24 07:42:14;;;;;;;8.25;1.35;;;15.40;99.90;;;;;;5016430;28;20145;-70
2022/10/24 07:44:40;;;;;;;9.05;1.73;;;15.40;99.90;;;;;;5003402;28;20045;-69
2022/10/24 07:47:07;;;;;;;8.98;1.60;;;15.50;99.90;;;;;;5008694;28;20467;-70
2022/10/24 07:49:33;;;;;;;9.30;1.45;;;15.50;99.90;;;;;;5008956;28;20037;-70
2022/10/24 07:51:59;;;;;;;7.22;1.40;;;15.50;99.90;;;;;;5018085;28;20045;-71
2022/10/24 07:54:27;;;;;;;8.90;1.48;;;15.50;99.90;;;;;;5013347;28;20455;-70
2022/10/24 07:56:53;;;;;;;6.85;1.40;;;15.60;99.90;;;;;;5015523;28;20053;-70
2022/10/24 07:59:19;;;;;;;7.43;1.35;;;15.60;99.90;;;;;;5011327;28;20057;-71
2022/10/24 08:01:45;;;;;;;7.85;1.60;;;15.60;99.90;;;;;;5015920;28;20041;-70
2022/10/24 08:04:11;;;;;;;7.93;1.33;;;15.60;99.90;;;;;;5017559;28;20044;-70
2022/10/24 08:06:39;;;;;;;6.25;1.23;;;15.60;99.90;;;;;;5000859;28;20049;-70
2022/10/24 08:09:05;;;;;;;11.70;1.48;;;15.70;99.90;;;;;;5000789;28;20486;-70
2022/10/24 08:11:32;;;;;;;7.75;1.27;;;15.70;99.90;;;;;;5008134;28;20053;-69
2022/10/24 08:13:57;;;;;;;9.35;1.27;;;15.70;99.90;;;;;;5012824;28;20045;-70
2022/10/24 08:16:24;;;;;;;7.60;1.30;;;15.70;99.90;;;;;;5019803;28;20053;-70
2022/10/24 08:18:51;;;;;;;8.52;1.65;;;15.80;99.90;;;;;;4998622;28;20053;-70
2022/10/24 08:21:20;;;;;;;8.63;2.22;;;15.80;99.90;;;;;;5008772;28;20042;-70
2022/10/24 08:23:47;;;;;;;10.63;1.70;;;15.80;99.90;;;;;;5006778;28;20033;-70
2022/10/24 08:26:16;;;;;;;6.22;1.25;;;15.70;99.90;;;;;;5013539;28;20049;-71
2022/10/24 08:28:42;;;;;;;10.35;1.20;;;15.80;99.90;;;;;;5015797;28;20136;-71
2022/10/24 08:31:17;;;;;;;6.93;1.65;;;15.80;99.90;;;;;;5040264;28;20056;-71
2022/10/24 08:33:43;;;;;;;9.32;1.25;;;15.80;99.90;;;;;;5019962;28;20461;-70
2022/10/24 08:36:24;;;;;;;12.23;1.92;;;15.80;99.90;;;;;;5020575;28;20042;-71
2022/10/24 08:38:50;;;;;;;17.92;1.83;;;15.80;99.90;;;;;;5016356;28;20068;-71
2022/10/24 08:41:25;;;;;;;9.52;1.23;;;15.80;99.90;;;;;;5015601;28;20065;-70
2022/10/24 08:43:52;;;;;;;8.32;1.58;;;15.80;99.90;;;;;;5018326;28;20501;-70
2022/10/24 08:46:47;;;;;;;7.40;1.42;;;15.90;99.90;;;;;;5017149;28;20457;-70
2022/10/24 08:49:46;;;;;;;17.25;1.92;;;15.90;99.90;;;;;;5009616;28;20045;-70
2022/10/24 08:52:28;;;;;;;11.73;1.63;;;15.90;99.90;;;;;;5003693;28;20049;-70
2022/10/24 08:54:57;;;;;;;10.60;1.50;;;15.80;99.90;;;;;;5015604;28;20057;-70
2022/10/24 08:57:29;;;;;;;7.30;1.48;;;15.90;99.90;;;;;;5012749;28;20041;-70
2022/10/24 09:00:00;;;;;;;10.82;1.38;;;15.90;99.90;;;;;;5011846;28;20081;-71
2022/10/24 09:02:32;;;;;;;10.68;1.80;;;15.90;99.90;;;;;;5020348;28;20065;-70
2022/10/24 09:04:59;;;;;;;11.65;1.95;;;15.90;99.90;;;;;;5012818;28;20473;-71
2022/10/24 09:07:26;;;;;;;7.25;1.30;;;16.00;99.90;;;;;;5006732;28;20124;-70
2022/10/24 09:10:03;;;;;;;9.55;1.27;;;16.00;99.90;;;;;;5003836;28;20085;-71
2022/10/24 09:12:29;;;;;;;12.65;1.58;;;15.90;99.90;;;;;;5019563;28;20605;-71
2022/10/24 09:14:58;;;;;;;9.77;1.40;;;15.90;99.90;;;;;;5016414;28;20041;-71
2022/10/24 09:17:31;;;;;;;9.15;1.67;;;15.90;99.90;;;;;;5010021;28;20046;-71
2022/10/24 09:20:11;;;;;;;9.95;1.27;;;15.90;99.90;;;;;;5013349;28;20045;-71
2022/10/24 09:22:38;;;;;;;7.70;1.33;;;15.90;99.90;;;;;;5013481;28;20514;-71
2022/10/24 09:25:06;;;;;;;8.07;1.60;;;16.00;99.90;;;;;;5017936;28;20052;-71
2022/10/24 09:27:35;;;;;;;13.95;1.80;;;16.00;99.90;;;;;;5026166;28;20061;-71
2022/10/24 09:30:01;;;;;;;8.85;1.52;;;16.00;99.90;;;;;;5020153;28;20589;-70
2022/10/24 09:32:30;;;;;;;9.50;1.60;;;16.00;99.90;;;;;;5020852;28;20084;-71
2022/10/24 09:35:03;;;;;;;8.75;1.50;;;16.10;99.90;;;;;;5014938;28;20125;-71
2022/10/24 09:37:41;;;;;;;7.88;1.20;;;16.10;99.90;;;;;;5004845;28;20565;-70
2022/10/24 09:40:24;;;;;;;9.45;1.35;;;16.10;99.90;;;;;;5017886;28;20034;-71
2022/10/24 09:42:58;;;;;;;12.60;1.70;;;16.20;99.90;;;;;;5016225;28;20053;-70
2022/10/24 09:45:32;;;;;;;12.93;1.85;;;16.20;99.90;;;;;;5011912;28;20141;-71
2022/10/24 09:48:19;;;;;;;7.88;1.70;;;16.30;99.90;;;;;;5016567;28;20069;-72
2022/10/24 09:50:47;;;;;;;10.15;1.63;;;16.30;99.90;;;;;;5004734;28;20052;-72
2022/10/24 09:53:29;;;;;;;8.73;1.33;;;16.30;99.90;;;;;;5017063;28;20076;-72
2022/10/24 09:56:05;;;;;;;6.65;1.30;;;16.30;99.90;;;;;;5016242;28;20049;-73
2022/10/24 09:58:32;;;;;;;9.02;1.58;;;16.30;99.90;;;;;;5013941;28;20033;-72
2022/10/24 10:01:05;;;;;;;9.55;1.60;;;16.30;99.90;;;;;;5020961;28;20076;-72
2022/10/24 10:03:32;;;;;;;8.05;1.15;;;16.30;99.90;;;;;;5012453;28;20045;-70
2022/10/24 10:06:12;;;;;;;10.27;1.85;;;16.20;99.90;;;;;;5019709;28;20076;-71
2022/10/24 10:08:38;;;;;;;8.00;1.35;;;16.20;99.90;;;;;;5017642;28;20121;-69
2022/10/24 10:11:10;;;;;;;10.50;1.33;;;16.20;99.90;;;;;;5022186;28;20073;-70
2022/10/24 10:13:50;;;;;;;14.27;2.35;;;16.10;99.90;;;;;;5016720;28;20045;-70
2022/10/24 10:16:27;;;;;;;7.72;1.40;;;16.10;99.90;;;;;;5023412;28;20049;-71
2022/10/24 10:19:15;;;;;;;10.93;1.63;;;16.10;99.90;;;;;;5020101;28;20633;-71
2022/10/24 10:22:00;;;;;;;11.55;1.52;;;16.10;99.90;;;;;;5013782;28;20057;-71
2022/10/24 10:24:39;;;;;;;7.63;1.40;;;16.10;99.90;;;;;;5008683;28;20050;-71
2022/10/24 10:27:30;;;;;;;8.10;1.38;;;16.10;99.90;;;;;;5008437;28;20541;-70
2022/10/24 10:30:14;;;;;;;8.60;1.50;;;16.00;99.90;;;;;;5010157;28;20061;-71
2022/10/24 10:33:08;;;;;;;7.80;1.30;;;16.00;99.90;;;;;;5013063;28;20056;-71
2022/10/24 10:35:41;;;;;;;11.05;1.48;;;16.00;99.90;;;;;;5012435;28;20499;-71
2022/10/24 10:38:30;;;;;;;13.45;1.48;;;15.90;99.90;;;;;;5014179;28;20077;-71
2022/10/24 10:41:07;;;;;;;9.98;1.60;;;15.80;99.90;;;;;;5012990;28;20140;-71
2022/10/24 10:43:47;;;;;;;9.50;1.80;;;15.80;99.90;;;;;;5013370;28;20076;-71
2022/10/24 10:46:19;;;;;;;9.43;1.73;;;15.70;99.90;;;;;;5005998;28;20463;-70
2022/10/24 10:48:59;;;;;;;7.47;1.40;;;15.70;99.90;;;;;;4993145;28;20136;-70
2022/10/24 10:51:30;;;;;;;15.07;1.83;;;15.60;99.90;;;;;;5008639;28;20075;-69
2022/10/24 10:54:18;;;;;;;15.93;3.17;;;15.60;99.90;;;;;;5016542;28;20041;-69
2022/10/24 10:56:59;;;;;;;11.43;1.63;;;15.50;99.90;;;;;;5016312;28;20080;-70
2022/10/24 10:59:39;;;;;;;8.93;1.67;;;15.50;99.90;;;;;;5009244;28;20052;-70
2022/10/24 11:02:14;;;;;;;12.07;1.63;;;15.60;99.90;;;;;;5003311;28;20059;-69
2022/10/24 11:04:53;;;;;;;11.10;1.60;;;15.70;99.90;;;;;;5012593;28;20553;-70
2022/10/24 11:07:44;;;;;;;8.02;1.48;;;15.70;99.90;;;;;;5005634;28;20049;-70
2022/10/24 11:10:16;;;;;;;9.17;1.53;;;15.70;99.90;;;;;;5019665;28;20058;-70
2022/10/24 11:12:43;;;;;;;15.05;1.67;;;15.80;99.90;;;;;;5016013;28;20307;-70
2022/10/24 11:15:19;;;;;;;9.50;1.75;;;15.80;99.90;;;;;;5015366;28;20454;-70
2022/10/24 11:17:57;;;;;;;13.93;1.52;;;15.80;99.90;;;;;;5020600;28;20056;-70
2022/10/24 11:20:34;;;;;;;20.98;1.92;;;15.90;99.90;;;;;;5018882;28;20073;-70
2022/10/24 11:23:09;;;;;;;10.38;1.90;;;16.00;99.90;;;;;;5013547;28;20134;-72
2022/10/24 11:25:46;;;;;;;9.52;1.40;;;15.90;99.90;;;;;;5019182;28;20124;-71
2022/10/24 11:28:38;;;;;;;11.93;1.55;;;15.90;99.90;;;;;;5014787;28;20427;-70
2022/10/24 11:31:17;;;;;;;13.27;1.70;;;15.90;99.90;;;;;;5015088;28;20262;-70
2022/10/24 11:33:57;;;;;;;11.50;1.73;;;15.90;99.90;;;;;;5010506;28;20041;-70
2022/10/24 11:36:31;;;;;;;6.22;1.30;;;15.80;99.90;;;;;;5006894;28;20116;-71
2022/10/24 11:39:35;;;;;;;13.60;2.00;;;15.80;99.90;;;;;;4997441;28;20041;-70
2022/10/24 11:42:12;;;;;;;13.00;1.77;;;15.80;99.90;;;;;;5013925;28;20060;-71
2022/10/24 11:44:51;;;;;;;8.27;1.75;;;15.80;99.90;;;;;;5016642;28;20038;-71
2022/10/24 11:47:22;;;;;;;12.02;1.70;;;15.80;99.90;;;;;;5016122;28;20045;-71
2022/10/24 11:50:12;;;;;;;9.82;1.50;;;15.80;99.90;;;;;;5012313;28;20239;-72
2022/10/24 11:53:19;;;;;;;8.77;1.45;;;15.80;99.90;;;;;;5008483;28;20544;-71
2022/10/24 11:56:16;;;;;;;11.32;2.63;;;15.80;99.90;;;;;;5007785;28;20450;-71
2022/10/24 11:59:04;;;;;;;9.38;2.10;;;15.80;99.90;;;;;;5020487;28;21392;-70
2022/10/24 12:02:11;;;;;;;12.00;1.30;;;15.80;99.90;;;;;;5013658;28;20085;-71
2022/10/24 12:04:57;;;;;;;6.93;1.52;;;15.80;99.90;;;;;;4998364;28;20054;-71
2022/10/24 12:07:51;;;;;;;12.73;1.65;;;15.80;99.90;;;;;;5020025;28;20443;-72
2022/10/24 12:10:31;;;;;;;10.50;1.70;;;15.80;99.90;;;;;;5021695;28;20049;-71
2022/10/24 12:13:34;;;;;;;10.43;1.52;;;15.80;99.90;;;;;;5014764;28;20124;-71
2022/10/24 12:16:24;;;;;;;10.88;1.38;;;15.90;99.90;;;;;;5016359;28;20049;-70
2022/10/24 12:18:58;;;;;;;9.30;1.38;;;15.90;99.90;;;;;;4998471;28;20124;-70
2022/10/24 12:21:27;;;;;;;9.80;1.25;;;15.90;99.90;;;;;;5015894;28;20493;-71
2022/10/24 12:24:00;;;;;;;10.02;1.70;;;16.00;99.90;;;;;;5010350;28;20083;-70
2022/10/24 12:26:34;;;;;;;12.45;2.35;;;16.00;99.90;;;;;;5022757;28;20048;-71
2022/10/24 12:29:03;;;;;;;9.82;1.63;;;16.10;99.90;;;;;;5024215;28;20081;-71
2022/10/24 12:31:36;;;;;;;9.88;1.55;;;16.00;99.90;;;;;;5026828;28;20045;-70
2022/10/24 12:34:14;;;;;;;8.45;1.65;;;16.00;99.90;;;;;;5024095;28;20060;-70
2022/10/24 12:37:10;;;;;;;11.73;1.55;;;16.00;99.90;;;;;;5018701;28;20647;-70
2022/10/24 12:39:44;;;;;;;14.63;2.33;;;16.00;99.90;;;;;;5016069;28;20059;-70
2022/10/24 12:42:34;;;;;;;13.27;1.67;;;15.90;99.90;;;;;;5014590;28;20136;-71
2022/10/24 12:45:00;;;;;;;6.57;1.20;;;15.90;99.90;;;;;;5019528;28;20037;-70
2022/10/24 12:47:29;;;;;;;10.82;1.73;;;16.00;99.90;;;;;;5019464;28;20305;-71
2022/10/24 12:49:55;;;;;;;9.75;1.42;;;16.00;99.90;;;;;;5021293;28;20068;-70
2022/10/24 12:52:30;;;;;;;12.57;1.63;;;16.00;99.90;;;;;;5021035;28;20115;-71
2022/10/24 12:54:57;;;;;;;6.80;1.40;;;16.10;99.90;;;;;;5015985;28;20096;-70
2022/10/24 12:57:38;;;;;;;8.18;1.40;;;16.10;99.90;;;;;;5000910;28;20048;-71
2022/10/24 13:00:26;;;;;;;7.88;1.25;;;16.20;99.90;;;;;;5018126;28;20108;-71
2022/10/24 13:03:04;;;;;;;8.10;1.33;;;16.20;99.90;;;;;;5017986;28;20054;-71
2022/10/24 13:05:55;;;;;;;8.57;1.33;;;16.20;99.90;;;;;;5017766;28;20061;-71